Terminal Aerodrome Forecast
Issued by NWS

Home | Current Version | Previous Version | Text Only | Print | Product List | Glossary On
Versions: 1 2 3 4 5 6 7 8 9 10 11 12 13 14 15 16 17 18 19 20
000
FTUS46 KSEW 311121
TAFHQM
TAF
KHQM 311121Z 3112/0112 18004KT P6SM SKC
      TEMPO 3112/3116 5SM BR SKC
     FM311800 24008KT P6SM SKC
     FM312100 27011KT P6SM SKC
     FM010400 23006KT P6SM SKC
     FM010900 00000KT 5SM BR SKC=

USA.gov is the U.S. government's official web portal to all federal, state and local government web resources and services.